createdAt,value
2019-02-14T00:00:39.382Z,0.38
2019-02-14T00:03:08.270Z,0.32
2019-02-14T00:05:36.855Z,0.43
2019-02-14T00:08:05.438Z,0.45
2019-02-14T00:10:34.025Z,0.46
2019-02-14T00:13:02.607Z,0.36
2019-02-14T00:15:31.194Z,0.38
2019-02-14T00:18:00.439Z,0.36
2019-02-14T00:20:29.021Z,0.38
2019-02-14T00:22:57.609Z,0.39
2019-02-14T00:25:26.227Z,0.24
2019-02-14T00:27:54.815Z,0.22
2019-02-14T00:30:23.392Z,0.32
2019-02-14T00:32:51.979Z,0.33
2019-02-14T00:35:25.198Z,0.32
2019-02-14T00:37:51.663Z,0.40
2019-02-14T00:40:20.248Z,0.44
2019-02-14T00:42:48.905Z,0.45
2019-02-14T00:45:17.569Z,0.50
2019-02-14T00:47:46.167Z,0.42
2019-02-14T00:50:14.779Z,0.33
2019-02-14T00:52:43.369Z,0.24
2019-02-14T00:55:12.540Z,0.10
2019-02-14T00:57:41.124Z,0.23
2019-02-14T01:00:11.516Z,0.19
2019-02-14T01:02:40.151Z,0.10
2019-02-14T01:05:10.123Z,0.13
2019-02-14T01:07:38.903Z,0.11
2019-02-14T01:10:07.785Z,0.17
2019-02-14T01:12:36.444Z,0.26
2019-02-14T01:15:09.071Z,0.27
2019-02-14T01:17:37.655Z,0.34
2019-02-14T01:20:07.136Z,0.27
2019-02-14T01:22:35.772Z,0.44
2019-02-14T01:25:05.061Z,0.45
2019-02-14T01:27:33.645Z,0.43
2019-02-14T01:30:02.228Z,0.27
2019-02-14T01:32:30.833Z,0.17
2019-02-14T01:34:59.476Z,0.32
2019-02-14T01:37:28.056Z,0.34
2019-02-14T01:39:58.622Z,0.30
2019-02-14T01:42:27.204Z,0.22
2019-02-14T01:44:55.790Z,0.10
2019-02-14T01:47:24.429Z,0.13
2019-02-14T01:49:53.060Z,-0.01
2019-02-14T01:52:21.984Z,-0.05
2019-02-14T01:54:50.607Z,-0.12
2019-02-14T01:57:19.196Z,0.01
2019-02-14T01:59:47.774Z,0.03
2019-02-14T02:02:16.360Z,0.02
2019-02-14T02:04:44.950Z,-0.06
2019-02-14T02:07:13.548Z,0.10
2019-02-14T02:09:42.144Z,0.06
2019-02-14T02:12:10.995Z,0.02
2019-02-14T02:14:39.680Z,0.02
2019-02-14T02:17:08.271Z,-0.10
2019-02-14T02:19:36.861Z,-0.08
2019-02-14T02:22:05.455Z,-0.03
2019-02-14T02:24:34.035Z,-0.01
2019-02-14T02:27:02.672Z,-0.01
2019-02-14T02:29:31.255Z,-0.05
2019-02-14T02:31:59.916Z,-0.01
2019-02-14T02:34:28.566Z,-0.08
2019-02-14T02:36:57.149Z,0.01
2019-02-14T02:39:25.746Z,0.01
2019-02-14T02:41:54.333Z,-0.26
2019-02-14T02:44:22.922Z,-0.35
2019-02-14T02:46:51.511Z,-0.34
2019-02-14T02:49:20.102Z,-0.22
2019-02-14T02:51:48.717Z,-0.08
2019-02-14T02:54:17.350Z,-0.11
2019-02-14T02:56:46.016Z,-0.12
2019-02-14T02:59:14.603Z,-0.19
2019-02-14T03:01:43.191Z,-0.18
2019-02-14T03:04:11.778Z,-0.27
2019-02-14T03:06:40.370Z,-0.26
2019-02-14T03:09:09.522Z,-0.20
2019-02-14T03:11:38.108Z,-0.19
2019-02-14T03:14:06.695Z,-0.22
2019-02-14T03:16:35.384Z,-0.24
2019-02-14T03:19:03.970Z,-0.14
2019-02-14T03:21:32.560Z,-0.33
2019-02-14T03:24:01.143Z,-0.25
2019-02-14T03:26:29.743Z,-0.35
2019-02-14T03:28:58.332Z,-0.35
2019-02-14T03:31:26.960Z,-0.27
2019-02-14T03:33:55.533Z,-0.24
2019-02-14T03:36:24.192Z,-0.34
2019-02-14T03:38:52.782Z,-0.34
2019-02-14T03:41:21.367Z,-0.35
2019-02-14T03:43:49.950Z,-0.50
2019-02-14T03:46:18.533Z,-0.41
2019-02-14T03:48:47.113Z,-0.29
2019-02-14T03:51:15.700Z,-0.31
2019-02-14T03:53:44.285Z,-0.43
2019-02-14T03:56:12.925Z,-0.39
2019-02-14T03:58:41.551Z,-0.28
2019-02-14T04:01:11.015Z,-0.22
2019-02-14T04:03:39.599Z,-0.42
2019-02-14T04:06:08.442Z,-0.37
2019-02-14T04:08:37.026Z,-0.32
2019-02-14T04:11:05.613Z,-0.17
2019-02-14T04:13:34.191Z,-0.22
2019-02-14T04:16:04.462Z,-0.15
2019-02-14T04:18:33.462Z,-0.30
2019-02-14T04:21:02.044Z,-0.28
2019-02-14T04:23:30.660Z,-0.34
2019-02-14T04:25:59.243Z,-0.22
2019-02-14T04:28:27.832Z,-0.14
2019-02-14T04:30:56.422Z,-0.13
2019-02-14T04:33:25.016Z,-0.21
2019-02-14T04:35:53.643Z,-0.28
2019-02-14T04:38:22.244Z,-0.42
2019-02-14T04:40:50.837Z,-0.37
2019-02-14T04:43:19.420Z,-0.49
2019-02-14T04:45:48.014Z,-0.45
2019-02-14T04:48:16.607Z,-0.53
2019-02-14T04:50:45.197Z,-0.54
2019-02-14T04:53:13.787Z,-0.55
2019-02-14T04:55:42.375Z,-0.67
2019-02-14T04:58:12.112Z,-0.65
2019-02-14T05:00:40.841Z,-0.65
2019-02-14T05:03:10.615Z,-0.77
2019-02-14T05:05:39.284Z,-0.75
2019-02-14T05:08:08.775Z,-0.82
2019-02-14T05:10:37.356Z,-0.79
2019-02-14T05:13:05.938Z,-0.72
2019-02-14T05:15:34.531Z,-0.79
2019-02-14T05:18:03.112Z,-0.79
2019-02-14T05:20:31.692Z,-0.87
2019-02-14T05:23:00.278Z,-0.89
2019-02-14T05:25:28.861Z,-0.83
2019-02-14T05:27:57.443Z,-0.79
2019-02-14T05:30:26.030Z,-0.76
2019-02-14T05:32:54.612Z,-0.67
2019-02-14T05:35:23.202Z,-0.85
2019-02-14T05:37:51.789Z,-0.82
2019-02-14T05:40:20.407Z,-0.72
2019-02-14T05:42:49.068Z,-0.60
2019-02-14T05:45:17.962Z,-0.65
2019-02-14T05:47:46.570Z,-0.69
2019-02-14T05:50:15.256Z,-0.62
2019-02-14T05:52:43.843Z,-0.72
2019-02-14T05:55:13.304Z,-0.71
2019-02-14T05:57:41.895Z,-0.75
2019-02-14T06:00:16.492Z,-0.85
2019-02-14T06:02:45.082Z,-0.77
2019-02-14T06:05:13.719Z,-0.71
2019-02-14T06:07:42.368Z,-0.60
2019-02-14T06:10:11.947Z,-0.67
2019-02-14T06:12:40.539Z,-0.76
2019-02-14T06:15:11.571Z,-0.79
2019-02-14T06:17:40.162Z,-0.77
2019-02-14T06:20:12.718Z,-0.76
2019-02-14T06:22:41.300Z,-0.72
2019-02-14T06:25:11.825Z,-0.70
2019-02-14T06:27:40.424Z,-0.71
2019-02-14T06:30:12.116Z,-0.79
2019-02-14T06:32:40.703Z,-0.75
2019-02-14T06:35:10.730Z,-0.76
2019-02-14T06:37:39.313Z,-0.84
2019-02-14T06:40:13.868Z,-0.78
2019-02-14T06:42:42.454Z,-0.68
2019-02-14T06:45:13.688Z,-0.70
2019-02-14T06:47:42.276Z,-0.89
2019-02-14T06:50:11.717Z,-0.85
2019-02-14T06:52:40.525Z,-0.81
2019-02-14T06:55:09.828Z,-0.76
2019-02-14T06:57:38.413Z,-0.72
2019-02-14T07:00:10.117Z,-0.74
2019-02-14T07:02:38.705Z,-0.65
2019-02-14T07:05:09.230Z,-0.79
2019-02-14T07:07:37.816Z,-0.68
2019-02-14T07:10:08.796Z,-0.78
2019-02-14T07:12:37.428Z,-0.83
2019-02-14T07:15:13.790Z,-0.76
2019-02-14T07:17:42.369Z,-0.95
2019-02-14T07:20:16.589Z,-0.88
2019-02-14T07:22:45.178Z,-0.77
2019-02-14T07:25:13.782Z,-0.57
2019-02-14T07:27:42.367Z,-0.68
2019-02-14T07:30:15.014Z,-0.54
2019-02-14T07:32:43.599Z,-0.46
2019-02-14T07:35:12.581Z,-0.65
2019-02-14T07:37:41.169Z,-0.45
2019-02-14T07:40:12.253Z,-0.41
2019-02-14T07:42:40.846Z,-0.29
2019-02-14T07:45:15.061Z,-0.26
2019-02-14T07:47:43.642Z,-0.29
2019-02-14T07:50:13.917Z,-0.18
2019-02-14T07:52:42.503Z,-0.10
2019-02-14T07:55:13.626Z,0.04
2019-02-14T07:57:42.278Z,0.05
2019-02-14T08:00:19.434Z,0.07
2019-02-14T08:02:48.012Z,0.19
2019-02-14T08:05:16.655Z,0.02
2019-02-14T08:07:45.244Z,0.12
2019-02-14T08:10:18.846Z,0.24
2019-02-14T08:12:47.427Z,0.35
2019-02-14T08:15:16.012Z,0.40
2019-02-14T08:17:44.635Z,0.38
2019-02-14T08:20:18.011Z,0.46
2019-02-14T08:22:46.590Z,0.47
2019-02-14T08:25:15.233Z,0.63
2019-02-14T08:27:43.812Z,0.61
2019-02-14T08:30:14.831Z,0.79
2019-02-14T08:32:43.464Z,0.77
2019-02-14T08:35:13.016Z,0.74
2019-02-14T08:37:45.547Z,0.68
2019-02-14T08:40:15.280Z,0.76
2019-02-14T08:42:43.866Z,0.87
2019-02-14T08:45:13.071Z,0.88
2019-02-14T08:47:41.655Z,0.99
2019-02-14T08:50:12.657Z,0.96
2019-02-14T08:52:41.242Z,0.93
2019-02-14T08:55:10.414Z,0.90
2019-02-14T08:57:38.992Z,0.98
2019-02-14T09:00:13.001Z,1.08
2019-02-14T09:02:41.608Z,1.13
2019-02-14T09:05:10.416Z,1.23
2019-02-14T09:07:39.008Z,1.21
2019-02-14T09:10:15.553Z,1.30
2019-02-14T09:12:44.145Z,1.43
2019-02-14T09:15:14.381Z,1.56
2019-02-14T09:17:42.964Z,1.60
2019-02-14T09:20:15.368Z,1.71
2019-02-14T09:22:43.992Z,1.80
2019-02-14T09:25:13.096Z,1.91
2019-02-14T09:27:41.684Z,1.98
2019-02-14T09:30:15.406Z,2.16
2019-02-14T09:32:44.124Z,2.29
2019-02-14T09:35:12.699Z,2.37
2019-02-14T09:37:41.276Z,2.40
2019-02-14T09:40:13.288Z,2.47
2019-02-14T09:42:41.870Z,2.56
2019-02-14T09:45:12.806Z,2.59
2019-02-14T09:47:41.391Z,2.71
2019-02-14T09:50:12.694Z,2.74
2019-02-14T09:52:41.883Z,2.82
2019-02-14T09:55:14.286Z,2.90
2019-02-14T09:57:42.867Z,2.99
2019-02-14T10:00:14.891Z,2.99
2019-02-14T10:02:43.476Z,3.03
2019-02-14T10:05:13.519Z,3.10
2019-02-14T10:07:42.111Z,3.23
2019-02-14T10:10:14.167Z,3.24
2019-02-14T10:12:42.751Z,3.32
2019-02-14T10:15:12.034Z,3.43
2019-02-14T10:17:40.625Z,3.42
2019-02-14T10:20:12.328Z,3.38
2019-02-14T10:22:40.912Z,3.52
2019-02-14T10:25:10.279Z,3.67
2019-02-14T10:27:38.977Z,3.66
2019-02-14T10:30:11.385Z,3.86
2019-02-14T10:32:39.971Z,3.95
2019-02-14T10:35:09.013Z,3.91
2019-02-14T10:37:37.586Z,3.90
2019-02-14T10:40:09.234Z,4.02
2019-02-14T10:42:37.818Z,4.11
2019-02-14T10:45:09.368Z,4.17
2019-02-14T10:47:37.954Z,4.26
2019-02-14T10:50:08.636Z,4.34
2019-02-14T10:52:37.219Z,4.46
2019-02-14T10:55:08.765Z,4.58
2019-02-14T10:57:37.388Z,4.68
2019-02-14T11:00:11.473Z,4.72
2019-02-14T11:02:40.055Z,4.82
2019-02-14T11:05:08.937Z,4.79
2019-02-14T11:07:37.526Z,4.94
2019-02-14T11:10:09.474Z,5.00
2019-02-14T11:12:38.064Z,5.02
2019-02-14T11:15:09.509Z,5.17
2019-02-14T11:17:38.095Z,5.23
2019-02-14T11:20:09.279Z,5.33
2019-02-14T11:22:37.866Z,5.37
2019-02-14T11:25:09.598Z,5.47
2019-02-14T11:27:38.180Z,5.51
2019-02-14T11:30:09.985Z,5.59
2019-02-14T11:32:38.574Z,5.79
2019-02-14T11:35:09.482Z,5.76
2019-02-14T11:37:38.062Z,5.86
2019-02-14T11:40:14.723Z,5.97
2019-02-14T11:42:43.308Z,6.16
2019-02-14T11:45:23.936Z,6.15
2019-02-14T11:47:52.528Z,6.15
2019-02-14T11:50:21.117Z,6.31
2019-02-14T11:52:49.727Z,6.40
2019-02-14T11:55:18.372Z,6.60
2019-02-14T11:57:46.954Z,6.65
2019-02-14T12:00:28.017Z,6.68
2019-02-14T12:02:56.718Z,6.85
2019-02-14T12:05:25.377Z,6.79
2019-02-14T12:07:53.967Z,6.89
2019-02-14T12:10:22.551Z,6.86
2019-02-14T12:12:51.136Z,6.80
2019-02-14T12:15:19.735Z,7.01
2019-02-14T12:17:48.326Z,7.16
2019-02-14T12:20:16.923Z,7.24
2019-02-14T12:22:47.085Z,7.41
2019-02-14T12:25:28.077Z,7.26
2019-02-14T12:27:56.665Z,7.37
2019-02-14T12:30:25.650Z,7.40
2019-02-14T12:32:54.250Z,7.61
2019-02-14T12:35:22.892Z,7.73
2019-02-14T12:37:51.475Z,7.68
2019-02-14T12:40:20.063Z,7.82
2019-02-14T12:42:48.650Z,7.84
2019-02-14T12:45:26.092Z,7.97
2019-02-14T12:47:54.891Z,7.90
2019-02-14T12:50:23.483Z,8.11
2019-02-14T12:52:52.068Z,8.18
2019-02-14T12:55:20.658Z,8.20
2019-02-14T12:57:49.251Z,8.13
2019-02-14T13:00:25.041Z,8.26
2019-02-14T13:02:53.625Z,8.18
2019-02-14T13:05:22.250Z,8.33
2019-02-14T13:07:50.884Z,8.53
2019-02-14T13:10:19.773Z,8.79
2019-02-14T13:12:48.356Z,8.81
2019-02-14T13:15:25.537Z,8.91
2019-02-14T13:17:54.133Z,8.83
2019-02-14T13:20:22.736Z,8.80
2019-02-14T13:22:51.339Z,8.86
2019-02-14T13:25:19.930Z,9.00
2019-02-14T13:27:48.526Z,9.13
2019-02-14T13:30:26.907Z,9.22
2019-02-14T13:32:55.498Z,9.18
2019-02-14T13:35:24.109Z,9.21
2019-02-14T13:37:52.698Z,9.29
2019-02-14T13:40:21.318Z,9.47
2019-02-14T13:42:49.911Z,10.13
2019-02-14T13:45:23.702Z,11.27
2019-02-14T13:47:52.301Z,11.27
2019-02-14T13:50:20.886Z,11.52
2019-02-14T13:52:49.478Z,11.49
2019-02-14T13:55:18.096Z,11.68
2019-02-14T13:57:46.684Z,11.98
2019-02-14T14:00:27.044Z,12.39
2019-02-14T14:02:55.648Z,12.72
2019-02-14T14:05:24.237Z,12.71
2019-02-14T14:07:52.837Z,12.64
2019-02-14T14:10:21.525Z,12.54
2019-02-14T14:12:50.122Z,12.74
2019-02-14T14:15:18.738Z,12.88
2019-02-14T14:17:47.329Z,12.60
2019-02-14T14:20:15.923Z,12.76
2019-02-14T14:22:44.520Z,12.97
2019-02-14T14:25:13.112Z,13.25
2019-02-14T14:27:41.704Z,13.40
2019-02-14T14:30:12.678Z,13.29
2019-02-14T14:32:41.275Z,13.22
2019-02-14T14:35:11.385Z,13.36
2019-02-14T14:37:40.086Z,13.96
2019-02-14T14:40:15.157Z,13.71
2019-02-14T14:42:51.097Z,13.63
2019-02-14T14:45:37.995Z,13.67
2019-02-14T14:48:08.589Z,13.87
2019-02-14T14:50:37.184Z,13.93
2019-02-14T14:53:07.521Z,14.14
2019-02-14T14:55:36.263Z,14.14
2019-02-14T14:58:04.848Z,13.74
2019-02-14T15:00:35.015Z,13.92
2019-02-14T15:03:03.610Z,14.38
2019-02-14T15:05:32.202Z,14.55
2019-02-14T15:08:00.801Z,14.45
2019-02-14T15:10:29.395Z,14.32
2019-02-14T15:12:57.982Z,14.36
2019-02-14T15:15:26.709Z,14.24
2019-02-14T15:17:55.302Z,14.46
2019-02-14T15:20:23.893Z,13.84
2019-02-14T15:22:52.487Z,13.84
2019-02-14T15:25:21.080Z,14.55
2019-02-14T15:27:49.673Z,14.58
2019-02-14T15:30:18.266Z,14.87
2019-02-14T15:32:46.855Z,14.58
2019-02-14T15:35:15.445Z,14.36
2019-02-14T15:37:46.616Z,14.50
2019-02-14T15:40:14.351Z,14.74
2019-02-14T15:42:42.966Z,14.78
2019-02-14T15:45:12.476Z,14.90
2019-02-14T15:47:41.056Z,14.91
2019-02-14T15:50:10.776Z,14.80
2019-02-14T15:52:39.367Z,14.69
2019-02-14T15:55:09.127Z,14.92
2019-02-14T15:57:37.718Z,15.00
2019-02-14T16:00:10.777Z,14.39
2019-02-14T16:02:39.564Z,14.60
2019-02-14T16:05:09.060Z,14.54
2019-02-14T16:07:39.510Z,14.34
2019-02-14T16:10:17.580Z,14.76
2019-02-14T16:12:41.174Z,14.74
2019-02-14T16:15:10.668Z,14.57
2019-02-14T16:17:39.252Z,14.55
2019-02-14T16:20:09.590Z,14.35
2019-02-14T16:22:40.189Z,14.14
2019-02-14T16:25:09.334Z,13.67
2019-02-14T16:27:37.933Z,12.77
2019-02-14T16:30:09.608Z,12.77
2019-02-14T16:32:38.229Z,12.38
2019-02-14T16:35:07.725Z,12.64
2019-02-14T16:37:36.314Z,12.78
2019-02-14T16:40:07.011Z,12.83
2019-02-14T16:42:35.598Z,12.83
2019-02-14T16:45:05.085Z,12.19
2019-02-14T16:47:34.102Z,11.65
2019-02-14T16:50:02.691Z,11.59
2019-02-14T16:52:31.280Z,11.61
2019-02-14T16:54:59.896Z,11.41
2019-02-14T16:57:28.498Z,10.82
2019-02-14T16:59:57.086Z,10.56
2019-02-14T17:02:25.661Z,9.94
2019-02-14T17:04:54.238Z,9.62
2019-02-14T17:07:22.853Z,8.77
2019-02-14T17:09:51.440Z,8.80
2019-02-14T17:12:20.023Z,8.25
2019-02-14T17:14:48.672Z,8.46
2019-02-14T17:17:17.264Z,8.38
2019-02-14T17:19:45.929Z,8.34
2019-02-14T17:22:32.522Z,8.24
2019-02-14T17:25:01.132Z,8.13
2019-02-14T17:27:32.579Z,8.10
2019-02-14T17:30:04.281Z,7.98
2019-02-14T17:32:33.956Z,7.68
2019-02-14T17:35:02.752Z,7.70
2019-02-14T17:37:31.337Z,7.74
2019-02-14T17:40:00.098Z,7.71
2019-02-14T17:45:45.859Z,7.26
2019-02-14T17:48:14.438Z,6.83
2019-02-14T17:50:43.115Z,6.78
2019-02-14T17:53:13.782Z,6.88
2019-02-14T17:55:42.409Z,6.68
2019-02-14T17:58:11.432Z,6.61
2019-02-14T18:00:41.588Z,6.37
2019-02-14T18:03:12.305Z,6.37
2019-02-14T18:05:41.012Z,6.26
2019-02-14T18:08:15.675Z,6.17
2019-02-14T18:10:55.699Z,6.13
2019-02-14T18:13:24.287Z,5.90
2019-02-14T18:15:52.902Z,5.81
2019-02-14T18:18:21.493Z,5.67
2019-02-14T18:21:45.509Z,5.67
2019-02-14T18:24:14.134Z,5.88
2019-02-14T18:30:15.539Z,5.67
2019-02-14T18:43:52.261Z,5.24
2019-02-14T18:46:26.420Z,5.43
2019-02-14T18:48:56.687Z,5.27
2019-02-14T18:51:25.284Z,5.25
2019-02-14T18:53:53.870Z,5.02
2019-02-14T18:56:22.531Z,4.88
2019-02-14T18:58:51.236Z,4.88
2019-02-14T19:01:19.820Z,4.90
2019-02-14T19:03:48.412Z,4.89
2019-02-14T19:06:17.142Z,4.80
2019-02-14T19:08:45.715Z,4.77
2019-02-14T19:11:15.428Z,4.85
2019-02-14T19:13:44.217Z,5.01
2019-02-14T19:16:12.952Z,5.01
2019-02-14T19:18:41.541Z,5.06
2019-02-14T19:21:10.139Z,4.97
2019-02-14T19:23:38.724Z,4.74
2019-02-14T19:26:07.923Z,4.72
2019-02-14T19:28:36.559Z,4.89
2019-02-14T19:31:05.159Z,4.89
2019-02-14T19:33:33.833Z,5.07
2019-02-14T19:36:02.557Z,5.04
2019-02-14T19:38:31.186Z,5.69
2019-02-14T19:40:59.778Z,5.57
2019-02-14T19:43:28.469Z,5.44
2019-02-14T19:45:57.101Z,5.39
2019-02-14T19:48:25.693Z,4.88
2019-02-14T19:50:54.292Z,4.93
2019-02-14T19:53:22.888Z,4.92
2019-02-14T19:55:51.479Z,4.66
2019-02-14T19:58:20.070Z,4.70
2019-02-14T20:00:48.690Z,4.65
2019-02-14T20:03:17.287Z,4.68
2019-02-14T20:05:45.875Z,4.52
2019-02-14T20:08:14.463Z,4.48
2019-02-14T20:10:43.052Z,4.34
2019-02-14T20:13:12.293Z,4.24
2019-02-14T20:15:40.896Z,4.10
2019-02-14T20:18:10.372Z,4.01
2019-02-14T20:20:38.975Z,3.90
2019-02-14T20:23:07.996Z,3.77
2019-02-14T20:25:36.587Z,3.98
2019-02-14T20:28:05.220Z,3.90
2019-02-14T20:30:33.888Z,4.04
2019-02-14T20:33:04.658Z,3.93
2019-02-14T20:35:32.799Z,3.93
2019-02-14T20:38:01.462Z,4.00
2019-02-14T20:40:31.973Z,3.85
2019-02-14T20:43:00.364Z,3.77
2019-02-14T20:45:29.987Z,3.76
2019-02-14T20:47:58.569Z,3.86
2019-02-14T20:50:27.168Z,3.86
2019-02-14T20:52:55.759Z,3.84
2019-02-14T20:55:26.111Z,3.75
2019-02-14T20:57:54.702Z,3.62
2019-02-14T21:00:34.151Z,3.57
2019-02-14T21:03:02.766Z,3.72
2019-02-14T21:05:31.393Z,3.45
2019-02-14T21:07:59.974Z,3.56
2019-02-14T21:10:28.561Z,3.44
2019-02-14T21:12:57.162Z,3.46
2019-02-14T21:15:25.885Z,3.42
2019-02-14T21:17:54.504Z,3.17
2019-02-14T21:20:23.117Z,3.02
2019-02-14T21:22:51.774Z,3.02
2019-02-14T21:25:23.020Z,3.04
2019-02-14T21:27:50.675Z,3.16
2019-02-14T21:30:20.684Z,3.26
2019-02-14T21:32:49.630Z,3.24
2019-02-14T21:35:18.249Z,3.29
2019-02-14T21:37:47.131Z,3.22
2019-02-14T21:40:19.879Z,3.16
2019-02-14T21:42:48.860Z,3.10
2019-02-14T21:45:18.293Z,3.15
2019-02-14T21:47:47.071Z,3.01
2019-02-14T21:50:16.147Z,3.09
2019-02-14T21:52:44.765Z,3.27
2019-02-14T21:55:14.297Z,3.23
2019-02-14T21:57:42.981Z,3.20
2019-02-14T22:00:18.329Z,3.23
2019-02-14T22:02:46.928Z,3.12
2019-02-14T22:05:15.521Z,3.00
2019-02-14T22:07:44.194Z,2.93
2019-02-14T22:10:13.725Z,2.82
2019-02-14T22:12:43.445Z,2.72
2019-02-14T22:15:18.730Z,2.72
2019-02-14T22:17:47.413Z,2.73
2019-02-14T22:20:16.046Z,2.80
2019-02-14T22:22:44.652Z,2.71
2019-02-14T22:25:13.274Z,2.66
2019-02-14T22:27:41.862Z,2.62
2019-02-14T22:30:14.090Z,2.78
2019-02-14T22:32:42.685Z,2.61
2019-02-14T22:35:11.755Z,2.56
2019-02-14T22:37:40.385Z,2.57
2019-02-14T22:40:10.804Z,2.66
2019-02-14T22:42:46.710Z,2.64
2019-02-14T22:45:13.441Z,2.55
2019-02-14T22:47:41.807Z,2.56
2019-02-14T22:50:10.838Z,2.66
2019-02-14T22:52:39.436Z,2.62
2019-02-14T22:55:10.478Z,2.60
2019-02-14T22:57:39.110Z,2.63
2019-02-14T23:00:13.394Z,2.53
2019-02-14T23:02:41.983Z,2.65
2019-02-14T23:05:11.700Z,2.47
2019-02-14T23:07:40.284Z,2.36
2019-02-14T23:10:10.103Z,2.38
2019-02-14T23:12:38.689Z,2.49
2019-02-14T23:15:08.177Z,2.54
2019-02-14T23:17:36.765Z,2.63
2019-02-14T23:20:06.679Z,2.68
2019-02-14T23:22:35.268Z,2.58
2019-02-14T23:25:04.261Z,2.58
2019-02-14T23:27:32.847Z,2.60
2019-02-14T23:30:02.485Z,2.37
2019-02-14T23:32:31.133Z,2.29
2019-02-14T23:34:59.732Z,2.43
2019-02-14T23:37:28.361Z,2.39
2019-02-14T23:39:56.985Z,2.20
2019-02-14T23:42:25.658Z,2.22
2019-02-14T23:44:54.274Z,2.19
2019-02-14T23:47:22.861Z,2.20
2019-02-14T23:49:51.443Z,2.04
2019-02-14T23:52:20.034Z,2.16
2019-02-14T23:54:48.627Z,2.09
2019-02-14T23:57:17.208Z,1.98
2019-02-14T23:59:45.794Z,1.96
